Time;durP1;ratioP1;P1;durP2;ratioP2;P2;SDS_P1;SDS_P2;PMS_P1;PMS_P2;Temp;Humidity;BMP_temperature;BMP_pressure;BME280_temperature;BME280_humidity;BME280_pressure;Samples;Min_cycle;Max_cycle;Signal;HPM_P1;HPM_P2
2023/03/14 00:00:32;;;;;;;5.70;1.50;;;13.10;99.90;;;;;;5017707;28;20084;-73
2023/03/14 00:02:57;;;;;;;7.22;2.15;;;13.00;99.90;;;;;;5017183;28;20043;-73
2023/03/14 00:05:23;;;;;;;9.48;2.03;;;13.00;99.90;;;;;;4997543;28;20470;-74
2023/03/14 00:07:49;;;;;;;8.27;1.52;;;13.00;99.90;;;;;;4994969;28;20085;-73
2023/03/14 00:10:15;;;;;;;7.95;2.33;;;13.00;99.90;;;;;;5004108;28;20034;-73
2023/03/14 00:12:41;;;;;;;6.75;1.63;;;13.00;99.90;;;;;;5008841;28;20101;-73
2023/03/14 00:15:08;;;;;;;5.43;1.15;;;13.00;99.90;;;;;;4987327;28;20035;-75
2023/03/14 00:17:35;;;;;;;5.10;1.30;;;12.90;99.90;;;;;;4984699;28;20061;-74
2023/03/14 00:20:07;;;;;;;7.97;1.65;;;12.90;99.90;;;;;;4989008;28;20031;-73
2023/03/14 00:22:36;;;;;;;;;;;12.90;99.90;;;;;;4990013;28;20034;-73
2023/03/14 00:25:04;;;;;;;6.05;1.40;;;12.90;99.90;;;;;;4990193;28;20350;-73
2023/03/14 00:27:30;;;;;;;6.30;1.50;;;12.90;99.90;;;;;;4988881;28;20382;-73
2023/03/14 00:29:56;;;;;;;5.05;1.33;;;12.70;99.90;;;;;;4980997;28;20035;-73
2023/03/14 00:32:21;;;;;;;7.72;1.38;;;12.70;99.90;;;;;;4984862;28;20033;-73
2023/03/14 00:34:47;;;;;;;5.97;1.35;;;12.70;99.90;;;;;;4982646;28;20027;-72
2023/03/14 00:37:13;;;;;;;5.28;1.20;;;12.60;99.90;;;;;;4981168;28;20092;-73
2023/03/14 00:39:39;;;;;;;5.20;1.20;;;12.60;99.90;;;;;;4988317;28;20026;-73
2023/03/14 00:42:04;;;;;;;5.10;1.00;;;12.70;99.90;;;;;;4987403;28;20423;-74
2023/03/14 00:44:31;;;;;;;5.38;1.10;;;12.60;99.90;;;;;;4982548;28;20034;-72
2023/03/14 00:46:57;;;;;;;5.93;1.35;;;12.70;99.90;;;;;;4988385;28;20490;-73
2023/03/14 00:49:23;;;;;;;6.93;1.42;;;12.70;99.90;;;;;;4987232;28;20037;-73
2023/03/14 00:51:49;;;;;;;5.43;1.10;;;12.70;99.90;;;;;;4986812;28;20023;-73
2023/03/14 00:54:15;;;;;;;5.72;1.60;;;12.80;99.90;;;;;;4985437;28;20060;-73
2023/03/14 00:56:41;;;;;;;7.05;1.40;;;12.80;99.90;;;;;;4981225;28;20026;-74
2023/03/14 00:59:06;;;;;;;8.13;1.65;;;12.70;99.90;;;;;;4983087;28;20092;-74
2023/03/14 01:01:32;;;;;;;8.35;1.65;;;12.80;99.90;;;;;;4984435;28;20030;-74
2023/03/14 01:03:57;;;;;;;4.50;1.23;;;12.70;99.90;;;;;;4987952;28;20062;-75
2023/03/14 01:06:26;;;;;;;8.05;1.77;;;12.70;99.90;;;;;;4986246;28;20018;-74
2023/03/14 01:08:52;;;;;;;8.27;1.40;;;12.80;99.90;;;;;;4988003;28;20042;-74
2023/03/14 01:11:21;;;;;;;5.28;1.90;;;12.70;99.90;;;;;;4986622;28;20007;-74
2023/03/14 01:13:47;;;;;;;8.32;2.28;;;12.70;99.90;;;;;;4985220;28;20029;-73
2023/03/14 01:16:14;;;;;;;5.65;1.27;;;12.70;99.90;;;;;;4987273;28;20050;-74
2023/03/14 01:18:41;;;;;;;8.68;1.92;;;12.70;99.90;;;;;;4987819;28;20032;-74
2023/03/14 01:21:22;;;;;;;5.22;1.50;;;12.70;99.90;;;;;;4987480;28;20391;-74
2023/03/14 01:23:48;;;;;;;8.27;1.55;;;12.60;99.90;;;;;;4986799;28;20062;-73
2023/03/14 01:26:18;;;;;;;9.63;1.48;;;12.60;99.90;;;;;;4987107;28;20479;-73
2023/03/14 01:28:45;;;;;;;5.93;1.30;;;12.60;99.90;;;;;;5019177;28;20026;-73
2023/03/14 01:31:11;;;;;;;5.82;1.40;;;12.60;99.90;;;;;;4987897;28;20026;-72
2023/03/14 01:33:38;;;;;;;6.55;1.38;;;12.50;99.90;;;;;;4987923;28;20037;-72
2023/03/14 01:36:04;;;;;;;8.13;1.60;;;12.50;99.90;;;;;;4987217;28;20109;-72
2023/03/14 01:38:31;;;;;;;4.93;1.45;;;12.50;99.90;;;;;;4991568;28;20106;-72
2023/03/14 01:40:58;;;;;;;8.50;2.28;;;12.30;99.90;;;;;;4985010;28;20037;-72
2023/03/14 01:43:24;;;;;;;6.32;1.77;;;12.40;99.90;;;;;;4987953;28;20031;-72
2023/03/14 01:46:01;;;;;;;10.43;2.78;;;12.30;99.90;;;;;;4987438;28;20015;-72
2023/03/14 01:48:32;;;;;;;6.25;1.30;;;12.30;99.90;;;;;;4987538;28;20034;-72
2023/03/14 01:51:00;;;;;;;9.48;1.75;;;12.30;99.90;;;;;;4989647;28;20133;-72
2023/03/14 01:53:27;;;;;;;6.15;1.80;;;12.20;99.90;;;;;;5019618;28;20054;-72
2023/03/14 01:55:56;;;;;;;4.82;1.55;;;12.20;99.90;;;;;;4988169;28;20088;-72
2023/03/14 01:58:25;;;;;;;6.40;1.67;;;12.20;99.90;;;;;;4987424;28;20022;-72
2023/03/14 02:00:51;;;;;;;8.27;1.88;;;12.30;99.90;;;;;;4988006;28;20026;-72
2023/03/14 02:03:21;;;;;;;9.45;1.80;;;12.30;99.90;;;;;;4985588;28;20064;-72
2023/03/14 02:05:48;;;;;;;9.82;2.10;;;12.20;99.90;;;;;;4985617;28;20027;-73
2023/03/14 02:08:21;;;;;;;5.20;1.65;;;12.10;99.90;;;;;;5003341;28;20398;-72
2023/03/14 02:10:49;;;;;;;10.20;1.70;;;12.20;99.90;;;;;;4985359;28;20042;-74
2023/03/14 02:13:18;;;;;;;9.25;1.80;;;12.10;99.90;;;;;;4987610;28;20071;-74
2023/03/14 02:15:44;;;;;;;6.82;2.05;;;12.10;99.90;;;;;;4987198;28;20034;-74
2023/03/14 02:18:11;;;;;;;7.65;1.77;;;12.10;99.90;;;;;;4987219;28;20014;-74
2023/03/14 02:21:01;;;;;;;12.05;1.85;;;12.10;99.90;;;;;;4988189;28;20554;-74
2023/03/14 02:23:40;;;;;;;9.63;2.40;;;12.10;99.90;;;;;;4989596;28;20080;-74
2023/03/14 02:26:15;;;;;;;13.30;2.13;;;12.20;99.90;;;;;;4986798;28;20065;-73
2023/03/14 02:28:42;;;;;;;6.30;2.03;;;12.20;99.90;;;;;;4993321;28;20050;-73
2023/03/14 02:31:08;;;;;;;7.70;2.00;;;12.20;99.90;;;;;;4987679;28;20437;-73
2023/03/14 02:33:36;;;;;;;16.73;2.28;;;12.20;99.90;;;;;;4987731;28;20144;-74
2023/03/14 02:36:06;;;;;;;10.70;2.10;;;12.20;99.90;;;;;;4988532;28;20030;-74
2023/03/14 02:38:55;;;;;;;15.93;2.10;;;12.20;99.90;;;;;;4989486;28;20022;-74
2023/03/14 02:41:20;;;;;;;8.57;2.17;;;12.20;99.90;;;;;;5004902;28;20027;-74
2023/03/14 02:43:46;;;;;;;11.40;2.63;;;12.20;99.90;;;;;;4991159;28;20071;-74
2023/03/14 02:46:16;;;;;;;7.35;2.47;;;12.20;99.90;;;;;;4989036;28;20437;-75
2023/03/14 02:49:03;;;;;;;8.82;2.17;;;12.20;99.90;;;;;;4990198;28;20043;-74
2023/03/14 02:51:29;;;;;;;6.95;2.35;;;12.30;99.90;;;;;;4997743;28;20056;-74
2023/03/14 02:53:55;;;;;;;10.82;2.33;;;12.20;99.90;;;;;;4990868;28;20035;-73
2023/03/14 02:56:21;;;;;;;12.75;2.60;;;12.10;99.90;;;;;;4990644;28;20014;-73
2023/03/14 02:58:47;;;;;;;6.25;1.83;;;12.20;99.90;;;;;;4989590;28;20137;-73
2023/03/14 03:01:13;;;;;;;9.43;1.67;;;12.10;99.90;;;;;;5005875;28;20030;-74
2023/03/14 03:03:38;;;;;;;10.93;1.80;;;12.20;99.90;;;;;;4990076;28;20027;-73
2023/03/14 03:06:04;;;;;;;8.10;1.75;;;12.10;99.90;;;;;;4991100;28;20030;-75
2023/03/14 03:08:31;;;;;;;8.45;2.05;;;12.10;99.90;;;;;;4989834;28;20376;-74
2023/03/14 03:10:57;;;;;;;6.13;2.10;;;12.10;99.90;;;;;;4989944;28;20037;-73
2023/03/14 03:13:23;;;;;;;11.35;2.00;;;12.10;99.90;;;;;;4990384;28;20547;-73
2023/03/14 03:15:49;;;;;;;8.85;1.92;;;12.10;99.90;;;;;;4990207;28;20023;-73
2023/03/14 03:18:15;;;;;;;11.07;1.90;;;12.10;99.90;;;;;;4988888;28;20026;-72
2023/03/14 03:20:41;;;;;;;9.73;2.50;;;12.10;99.90;;;;;;4989542;28;20046;-72
2023/03/14 03:23:06;;;;;;;7.35;1.70;;;12.10;99.90;;;;;;4990236;28;20042;-74
2023/03/14 03:25:32;;;;;;;5.97;1.63;;;12.10;99.90;;;;;;4991008;28;20068;-75
2023/03/14 03:27:58;;;;;;;6.97;1.67;;;12.00;99.90;;;;;;4992385;28;20033;-75
2023/03/14 03:30:24;;;;;;;7.32;2.03;;;12.10;99.90;;;;;;4990121;28;20101;-74
2023/03/14 03:32:50;;;;;;;5.97;1.35;;;12.10;99.90;;;;;;4989771;28;20148;-74
2023/03/14 03:35:16;;;;;;;5.68;1.58;;;12.10;99.90;;;;;;4989956;28;20027;-74
2023/03/14 03:37:41;;;;;;;3.15;0.90;;;12.00;99.90;;;;;;4990112;28;20454;-74
2023/03/14 03:40:08;;;;;;;3.50;0.77;;;12.00;99.90;;;;;;4987615;28;20104;-73
2023/03/14 03:42:34;;;;;;;4.32;1.20;;;11.90;99.90;;;;;;4986505;28;20019;-73
2023/03/14 03:45:00;;;;;;;5.38;1.20;;;11.80;99.90;;;;;;4990150;28;20026;-73
2023/03/14 03:47:26;;;;;;;7.68;1.02;;;11.80;99.90;;;;;;4989482;28;20057;-73
2023/03/14 03:49:52;;;;;;;6.60;1.23;;;11.80;99.90;;;;;;4989431;28;20053;-73
2023/03/14 03:52:18;;;;;;;3.95;0.60;;;11.80;99.90;;;;;;4990347;28;20022;-73
2023/03/14 03:54:43;;;;;;;3.38;0.60;;;11.70;99.90;;;;;;4989863;28;20038;-74
2023/03/14 03:57:09;;;;;;;3.80;0.85;;;11.70;99.90;;;;;;4989976;28;20022;-73
2023/03/14 03:59:35;;;;;;;4.43;1.40;;;11.70;99.90;;;;;;4989944;28;20033;-74
2023/03/14 04:02:01;;;;;;;3.00;0.77;;;11.70;99.90;;;;;;4987600;28;20018;-73
2023/03/14 04:04:26;;;;;;;3.75;1.25;;;11.70;99.90;;;;;;4990330;28;20030;-73
2023/03/14 04:06:52;;;;;;;4.18;0.73;;;11.70;99.90;;;;;;4988958;28;20026;-73
2023/03/14 04:09:18;;;;;;;4.65;1.00;;;11.60;99.90;;;;;;4989390;28;20053;-74
2023/03/14 04:11:43;;;;;;;4.93;0.90;;;11.60;99.90;;;;;;4989947;28;20046;-73
2023/03/14 04:14:09;;;;;;;3.97;0.65;;;11.60;99.90;;;;;;4989436;28;20096;-73
2023/03/14 04:16:35;;;;;;;1.67;0.57;;;11.50;99.90;;;;;;4989413;28;20023;-74
2023/03/14 04:19:01;;;;;;;3.53;0.70;;;11.60;99.90;;;;;;4987115;28;20076;-73
2023/03/14 04:21:27;;;;;;;3.67;1.10;;;11.50;99.90;;;;;;4988311;28;20034;-74
2023/03/14 04:23:52;;;;;;;2.42;1.08;;;11.50;99.90;;;;;;4989032;28;20026;-74
2023/03/14 04:26:18;;;;;;;4.75;0.80;;;11.50;99.90;;;;;;4989478;28;20379;-73
2023/03/14 04:28:44;;;;;;;3.85;1.17;;;11.60;99.90;;;;;;4989288;28;20486;-73
2023/03/14 04:31:12;;;;;;;4.82;1.38;;;11.50;99.90;;;;;;4989218;28;20034;-73
2023/03/14 04:33:38;;;;;;;5.88;1.48;;;11.50;99.90;;;;;;4989464;28;20019;-74
2023/03/14 04:36:05;;;;;;;5.10;1.20;;;11.50;99.90;;;;;;4989476;28;20383;-74
2023/03/14 04:38:31;;;;;;;4.43;1.05;;;11.50;99.90;;;;;;4988685;28;20037;-74
2023/03/14 04:40:57;;;;;;;4.35;1.60;;;11.50;99.90;;;;;;5003095;28;20113;-74
2023/03/14 04:43:23;;;;;;;6.28;2.38;;;11.50;99.90;;;;;;4990836;28;20057;-74
2023/03/14 04:45:49;;;;;;;5.45;2.28;;;11.50;99.90;;;;;;5005471;28;20018;-73
2023/03/14 04:48:14;;;;;;;8.07;2.65;;;11.40;99.90;;;;;;4990291;28;20049;-74
2023/03/14 04:50:40;;;;;;;5.95;2.25;;;11.40;99.90;;;;;;4991253;28;20471;-73
2023/03/14 04:53:06;;;;;;;9.60;2.72;;;11.40;99.90;;;;;;4990728;28;20061;-73
2023/03/14 04:55:32;;;;;;;9.32;2.92;;;11.40;99.90;;;;;;4991034;28;20061;-74
2023/03/14 04:57:59;;;;;;;8.00;2.53;;;11.50;99.90;;;;;;4990728;28;20050;-73
2023/03/14 05:00:24;;;;;;;10.90;3.22;;;11.60;99.90;;;;;;4990778;28;20022;-73
2023/03/14 05:02:50;;;;;;;9.73;3.22;;;11.50;99.90;;;;;;4991014;28;20453;-73
2023/03/14 05:05:16;;;;;;;7.13;3.30;;;11.40;99.90;;;;;;4990571;28;20023;-73
2023/03/14 05:07:42;;;;;;;11.25;3.63;;;11.40;99.90;;;;;;4988252;28;20041;-73
2023/03/14 05:10:08;;;;;;;9.68;3.83;;;11.50;99.90;;;;;;4989385;28;20076;-74
2023/03/14 05:12:34;;;;;;;9.45;3.08;;;11.50;99.90;;;;;;4990377;28;20479;-74
2023/03/14 05:15:00;;;;;;;8.80;3.33;;;11.50;99.90;;;;;;4990667;28;20034;-73
2023/03/14 05:17:25;;;;;;;7.28;3.17;;;11.50;99.90;;;;;;4990438;28;20540;-73
2023/03/14 05:19:51;;;;;;;11.05;3.25;;;11.60;99.90;;;;;;4990217;28;20038;-73
2023/03/14 05:22:17;;;;;;;9.15;3.08;;;11.60;99.90;;;;;;4990204;28;20061;-74
2023/03/14 05:24:42;;;;;;;8.65;3.40;;;11.70;99.90;;;;;;4990920;28;20383;-73
2023/03/14 05:27:08;;;;;;;6.03;2.72;;;11.70;99.90;;;;;;4990413;28;20022;-73
2023/03/14 05:29:34;;;;;;;9.82;3.22;;;11.60;99.90;;;;;;4989330;28;20066;-73
2023/03/14 05:31:59;;;;;;;10.27;3.75;;;11.60;99.90;;;;;;4988992;28;20045;-73
2023/03/14 05:34:25;;;;;;;9.05;3.45;;;11.70;99.90;;;;;;4989946;28;20022;-73
2023/03/14 05:36:51;;;;;;;10.57;3.08;;;11.60;99.90;;;;;;4990024;28;20026;-74
2023/03/14 05:39:16;;;;;;;9.90;3.45;;;11.70;99.90;;;;;;4990187;28;20091;-74
2023/03/14 05:41:42;;;;;;;8.50;3.15;;;11.60;99.90;;;;;;4989682;28;20018;-74
2023/03/14 05:44:08;;;;;;;11.32;3.30;;;11.70;99.90;;;;;;4990039;28;20084;-74
2023/03/14 05:46:33;;;;;;;11.18;3.78;;;11.70;99.90;;;;;;4989792;28;20026;-74
2023/03/14 05:48:59;;;;;;;8.32;4.25;;;11.70;99.90;;;;;;4989592;28;20045;-74
2023/03/14 05:51:26;;;;;;;6.15;3.47;;;11.70;99.90;;;;;;4987196;28;20030;-73
2023/03/14 05:53:51;;;;;;;11.50;3.92;;;11.70;99.90;;;;;;4989327;28;20023;-74
2023/03/14 05:56:17;;;;;;;8.95;3.47;;;11.70;99.90;;;;;;4986826;28;20045;-74
2023/03/14 05:58:43;;;;;;;9.55;3.72;;;11.60;99.90;;;;;;4971735;28;20547;-73
2023/03/14 06:01:09;;;;;;;7.45;3.40;;;11.60;99.90;;;;;;4969199;28;20387;-74
2023/03/14 06:03:35;;;;;;;8.05;3.92;;;11.60;99.90;;;;;;4970345;28;20678;-73
2023/03/14 06:06:00;;;;;;;8.90;3.67;;;11.60;99.90;;;;;;4986132;28;20034;-74
2023/03/14 06:08:27;;;;;;;6.05;3.17;;;11.60;99.90;;;;;;4989606;28;20479;-74
2023/03/14 06:10:52;;;;;;;6.70;3.42;;;11.60;99.90;;;;;;4990377;28;20391;-73
2023/03/14 06:13:18;;;;;;;8.23;4.25;;;11.70;99.90;;;;;;4993069;28;20022;-74
2023/03/14 06:15:44;;;;;;;5.40;3.90;;;11.80;99.90;;;;;;4993425;28;20033;-74
2023/03/14 06:18:10;;;;;;;9.55;3.75;;;11.80;99.90;;;;;;4993099;28;20033;-73
2023/03/14 06:20:38;;;;;;;6.70;3.30;;;11.70;99.90;;;;;;4993401;28;20027;-73
2023/03/14 06:23:08;;;;;;;9.30;4.90;;;11.70;99.90;;;;;;4992858;28;20080;-74
2023/03/14 06:25:34;;;;;;;9.80;3.72;;;11.70;99.90;;;;;;4993411;28;20038;-73
2023/03/14 06:28:00;;;;;;;9.73;3.90;;;11.70;99.90;;;;;;4973879;28;20098;-73
2023/03/14 06:30:26;;;;;;;6.10;2.97;;;11.70;99.90;;;;;;4981056;28;20118;-74
2023/03/14 06:32:52;;;;;;;8.13;3.97;;;11.70;99.90;;;;;;4990705;28;20471;-75
2023/03/14 06:35:18;;;;;;;4.65;3.78;;;11.70;99.90;;;;;;4992647;28;20084;-73
2023/03/14 06:37:44;;;;;;;6.28;3.92;;;11.70;99.90;;;;;;4992114;28;20019;-73
2023/03/14 06:40:16;;;;;;;10.43;3.63;;;11.70;99.90;;;;;;4993089;28;20394;-73
2023/03/14 06:42:42;;;;;;;7.13;4.20;;;11.70;99.90;;;;;;4992623;28;20033;-73
2023/03/14 06:45:08;;;;;;;19.38;5.22;;;11.70;99.90;;;;;;4992951;28;20065;-73
2023/03/14 06:47:34;;;;;;;6.38;3.95;;;11.80;99.90;;;;;;4992574;28;20029;-74
2023/03/14 06:50:00;;;;;;;8.80;3.97;;;11.70;99.90;;;;;;4991765;28;20398;-74
2023/03/14 06:52:25;;;;;;;6.93;4.53;;;11.70;99.90;;;;;;4991947;28;20034;-74
2023/03/14 06:54:51;;;;;;;7.45;4.45;;;11.80;99.90;;;;;;4987639;28;20397;-74
2023/03/14 06:57:17;;;;;;;5.50;3.80;;;11.80;99.90;;;;;;4993276;28;20050;-74
2023/03/14 06:59:42;;;;;;;7.10;4.47;;;11.90;99.90;;;;;;4989097;28;20038;-74
2023/03/14 07:02:12;;;;;;;6.47;4.18;;;11.90;99.90;;;;;;4973022;28;20026;-74
2023/03/14 07:04:38;;;;;;;6.13;4.00;;;12.00;99.90;;;;;;4973218;28;20042;-74
2023/03/14 07:07:04;;;;;;;5.13;4.00;;;12.10;99.90;;;;;;4979088;28;20026;-74
2023/03/14 07:09:30;;;;;;;12.27;4.43;;;12.10;99.90;;;;;;4993605;28;20509;-74
2023/03/14 07:11:55;;;;;;;7.60;4.35;;;12.00;99.90;;;;;;5003258;28;20022;-73
2023/03/14 07:14:21;;;;;;;6.40;4.40;;;12.10;99.90;;;;;;4991473;28;20034;-74
2023/03/14 07:16:47;;;;;;;6.20;3.60;;;12.20;99.90;;;;;;4991657;28;20037;-73
2023/03/14 07:19:12;;;;;;;6.55;3.97;;;12.20;99.90;;;;;;4991968;28;20113;-74
2023/03/14 07:21:38;;;;;;;7.15;4.00;;;12.20;99.90;;;;;;4991394;28;20034;-74
2023/03/14 07:24:04;;;;;;;5.38;3.95;;;12.20;99.90;;;;;;4991171;28;20036;-74
2023/03/14 07:26:29;;;;;;;10.02;4.28;;;12.20;99.90;;;;;;4991686;28;20065;-73
2023/03/14 07:28:55;;;;;;;6.25;3.72;;;12.30;99.90;;;;;;4991802;28;20034;-73
2023/03/14 07:31:21;;;;;;;5.50;3.40;;;12.10;99.90;;;;;;4991192;28;20559;-71
2023/03/14 07:33:46;;;;;;;6.03;3.35;;;12.10;99.90;;;;;;4991926;28;20386;-73
2023/03/14 07:36:12;;;;;;;5.05;3.55;;;12.10;99.90;;;;;;4988732;28;20387;-73
2023/03/14 07:38:38;;;;;;;3.63;2.67;;;12.10;99.90;;;;;;4991121;28;20428;-73
2023/03/14 07:41:05;;;;;;;4.90;2.50;;;12.00;99.90;;;;;;4991675;28;20032;-73
2023/03/14 07:43:31;;;;;;;6.85;2.40;;;12.00;99.90;;;;;;4992224;28;20023;-73
2023/03/14 07:45:57;;;;;;;3.30;2.15;;;12.00;99.90;;;;;;4989105;28;20442;-75
2023/03/14 07:48:24;;;;;;;1.80;1.70;;;12.00;99.90;;;;;;4991064;28;20474;-73
2023/03/14 07:50:54;;;;;;;2.67;1.92;;;11.90;99.90;;;;;;4991114;28;20026;-73
2023/03/14 07:53:21;;;;;;;2.70;2.50;;;11.70;99.90;;;;;;4991340;28;20039;-74
2023/03/14 07:55:47;;;;;;;3.95;2.35;;;11.60;99.90;;;;;;4991199;28;20031;-74
2023/03/14 07:58:13;;;;;;;2.67;1.30;;;11.40;99.90;;;;;;4990668;28;20030;-72
2023/03/14 08:00:39;;;;;;;3.17;0.90;;;11.30;99.90;;;;;;4985976;28;20023;-73
2023/03/14 08:03:05;;;;;;;2.10;0.90;;;11.30;99.90;;;;;;4990676;28;20380;-73
2023/03/14 08:05:30;;;;;;;12.85;2.03;;;11.30;99.90;;;;;;4991303;28;20022;-73
2023/03/14 08:07:56;;;;;;;0.82;0.70;;;11.30;99.90;;;;;;4991675;28;20482;-73
2023/03/14 08:10:22;;;;;;;0.60;0.60;;;11.10;99.90;;;;;;4991245;28;20049;-73
2023/03/14 08:12:56;;;;;;;1.20;1.05;;;11.10;99.90;;;;;;4986735;28;20023;-73
2023/03/14 08:15:22;;;;;;;3.40;1.08;;;11.10;99.90;;;;;;4983634;28;20488;-73
2023/03/14 08:17:53;;;;;;;2.17;1.40;;;11.10;99.90;;;;;;4986041;28;20035;-74
2023/03/14 08:20:23;;;;;;;3.30;1.33;;;11.00;99.90;;;;;;4982474;28;20670;-73
2023/03/14 08:22:49;;;;;;;1.55;1.45;;;11.00;99.90;;;;;;4979944;28;20076;-72
2023/03/14 08:25:15;;;;;;;1.65;1.40;;;11.00;99.90;;;;;;4981327;28;20042;-73
2023/03/14 08:27:41;;;;;;;5.15;1.35;;;10.90;99.90;;;;;;4984019;28;20015;-73
2023/03/14 08:30:12;;;;;;;2.08;1.10;;;10.90;99.90;;;;;;4982803;28;20041;-74
2023/03/14 08:32:38;;;;;;;2.22;1.15;;;10.70;99.90;;;;;;4981784;28;20026;-74
2023/03/14 08:35:06;;;;;;;1.10;1.00;;;10.70;99.90;;;;;;4983563;28;20083;-73
2023/03/14 08:37:32;;;;;;;2.05;1.08;;;10.70;99.90;;;;;;4995228;28;20023;-73
2023/03/14 08:39:58;;;;;;;2.55;0.93;;;10.70;99.90;;;;;;4980866;28;20030;-73
2023/03/14 08:42:24;;;;;;;1.48;1.00;;;10.70;99.90;;;;;;4980811;28;20384;-73
2023/03/14 08:44:52;;;;;;;2.85;0.80;;;10.60;99.90;;;;;;4979930;28;20038;-72
2023/03/14 08:47:19;;;;;;;1.65;0.98;;;10.60;99.90;;;;;;4983400;28;20026;-73
2023/03/14 08:49:45;;;;;;;1.27;0.80;;;10.60;99.90;;;;;;4980411;28;20398;-73
2023/03/14 08:52:11;;;;;;;1.63;0.95;;;10.70;99.90;;;;;;4996631;28;20028;-73
2023/03/14 08:54:36;;;;;;;0.95;0.88;;;10.80;99.90;;;;;;4988626;28;20602;-73
2023/03/14 08:57:02;;;;;;;7.70;1.90;;;10.80;99.90;;;;;;4980701;28;20101;-73
2023/03/14 08:59:28;;;;;;;5.75;1.42;;;10.80;99.90;;;;;;4981108;28;20365;-73
2023/03/14 09:01:54;;;;;;;2.45;1.20;;;10.80;99.90;;;;;;4979876;28;20116;-73
2023/03/14 09:04:20;;;;;;;2.45;1.10;;;10.70;99.90;;;;;;4979843;28;20018;-73
2023/03/14 09:06:45;;;;;;;3.92;1.50;;;10.60;99.90;;;;;;4981392;28;20060;-73
2023/03/14 09:09:13;;;;;;;5.30;1.42;;;10.60;99.90;;;;;;4982605;28;20054;-74
2023/03/14 09:11:39;;;;;;;22.33;3.22;;;10.60;99.90;;;;;;4979909;28;20507;-73
2023/03/14 09:14:04;;;;;;;4.18;1.63;;;10.70;99.90;;;;;;4982673;28;20022;-74
2023/03/14 09:16:30;;;;;;;96.38;12.23;;;10.70;99.90;;;;;;4983022;28;20038;-73
2023/03/14 09:18:59;;;;;;;29.52;3.17;;;10.80;99.90;;;;;;4986971;28;20026;-74
2023/03/14 09:21:25;;;;;;;5.97;1.73;;;10.60;99.90;;;;;;4988079;28;20107;-73
2023/03/14 09:23:51;;;;;;;4.05;1.25;;;10.70;99.90;;;;;;4988460;28;20026;-73
2023/03/14 09:26:16;;;;;;;6.28;1.50;;;10.70;99.90;;;;;;4988149;28;20253;-74
2023/03/14 09:28:42;;;;;;;4.07;1.15;;;10.90;99.90;;;;;;4987151;28;20038;-74
2023/03/14 09:31:10;;;;;;;4.80;1.15;;;10.90;99.90;;;;;;4989330;28;20031;-74
2023/03/14 09:33:36;;;;;;;3.90;1.20;;;10.90;99.90;;;;;;4982859;28;20027;-74
2023/03/14 09:36:03;;;;;;;3.97;1.17;;;10.90;99.90;;;;;;4988847;28;20026;-74
2023/03/14 09:38:28;;;;;;;3.20;1.63;;;11.00;99.90;;;;;;4988571;28;20101;-73
2023/03/14 09:40:57;;;;;;;2.80;1.10;;;10.80;99.90;;;;;;4988495;28;20138;-74
2023/03/14 09:43:26;;;;;;;3.92;1.65;;;10.90;99.90;;;;;;4981856;28;20356;-74
2023/03/14 09:45:52;;;;;;;3.25;1.33;;;11.00;99.90;;;;;;4988332;28;20056;-70
2023/03/14 09:48:26;;;;;;;5.57;1.58;;;11.10;99.90;;;;;;4989019;28;20486;-71
2023/03/14 09:50:54;;;;;;;5.68;1.70;;;11.10;99.90;;;;;;4990233;28;20031;-72
2023/03/14 09:53:26;;;;;;;3.22;1.80;;;11.10;99.90;;;;;;4989815;28;20031;-73
2023/03/14 09:55:53;;;;;;;4.72;2.30;;;11.00;99.90;;;;;;4989326;28;20059;-71
2023/03/14 09:58:24;;;;;;;3.13;1.95;;;11.10;99.90;;;;;;4986835;28;20109;-71
2023/03/14 10:00:51;;;;;;;4.25;2.22;;;11.10;99.90;;;;;;4987634;28;20117;-72
2023/03/14 10:03:33;;;;;;;6.05;2.35;;;10.90;99.90;;;;;;4978454;28;20721;-71
2023/03/14 10:05:59;;;;;;;9.98;3.05;;;10.90;99.90;;;;;;4986268;28;20439;-72
2023/03/14 10:08:25;;;;;;;4.72;2.38;;;10.80;99.90;;;;;;4988403;28;20022;-72
2023/03/14 10:10:51;;;;;;;5.20;2.60;;;10.80;99.90;;;;;;4989363;28;20037;-72
2023/03/14 10:13:27;;;;;;;3.45;2.30;;;10.80;99.90;;;;;;4987517;28;20029;-71
2023/03/14 10:15:53;;;;;;;6.35;2.10;;;10.80;99.90;;;;;;4988187;28;20383;-72
2023/03/14 10:18:18;;;;;;;4.28;2.30;;;10.80;99.90;;;;;;4987921;28;20027;-73
2023/03/14 10:21:01;;;;;;;2.65;1.90;;;10.60;99.90;;;;;;4988853;28;20035;-72
2023/03/14 10:23:31;;;;;;;3.95;1.85;;;10.70;99.90;;;;;;5002970;28;20476;-72
2023/03/14 10:26:05;;;;;;;2.38;1.25;;;10.70;99.90;;;;;;4986199;28;20034;-72
2023/03/14 10:28:34;;;;;;;3.17;1.30;;;10.60;99.90;;;;;;4984184;28;20027;-74
2023/03/14 10:31:00;;;;;;;3.17;0.82;;;10.50;99.90;;;;;;4988331;28;20027;-72
2023/03/14 10:33:32;;;;;;;2.63;0.95;;;10.40;99.90;;;;;;4989168;28;20030;-73
2023/03/14 10:36:26;;;;;;;1.00;0.68;;;10.30;99.90;;;;;;4987431;28;20030;-75
2023/03/14 10:39:16;;;;;;;2.42;0.65;;;10.30;99.90;;;;;;4986663;28;20372;-74
2023/03/14 10:41:52;;;;;;;1.20;0.90;;;10.30;99.90;;;;;;4989603;28;20466;-74
2023/03/14 10:44:22;;;;;;;2.40;1.00;;;10.30;99.90;;;;;;4980801;28;20038;-74
2023/03/14 10:46:58;;;;;;;8.23;1.23;;;10.30;99.90;;;;;;4982300;28;20034;-74
2023/03/14 10:49:35;;;;;;;1.45;0.70;;;10.40;99.90;;;;;;4988069;28;20053;-74
2023/03/14 10:52:15;;;;;;;5.85;0.95;;;10.40;99.90;;;;;;4987374;28;20030;-74
2023/03/14 10:54:40;;;;;;;2.13;1.00;;;10.50;99.90;;;;;;4988014;28;20087;-74
2023/03/14 10:57:07;;;;;;;1.63;0.43;;;10.70;99.90;;;;;;4989593;28;20413;-74
2023/03/14 10:59:38;;;;;;;4.88;0.73;;;10.80;99.90;;;;;;4992365;28;20071;-74
2023/03/14 11:02:20;;;;;;;7.88;1.30;;;10.90;99.90;;;;;;4990272;28;20030;-73
2023/03/14 11:04:49;;;;;;;4.05;1.02;;;11.20;99.90;;;;;;4978650;28;20030;-72
2023/03/14 11:07:40;;;;;;;5.35;1.20;;;11.20;99.90;;;;;;4991473;28;20024;-74
2023/03/14 11:10:21;;;;;;;5.05;1.17;;;11.40;99.90;;;;;;5021631;28;20062;-74
2023/03/14 11:13:08;;;;;;;9.35;1.20;;;11.50;99.90;;;;;;5016412;28;20024;-74
2023/03/14 11:16:05;;;;;;;7.22;1.75;;;11.50;99.90;;;;;;5003392;28;20021;-74
2023/03/14 11:18:39;;;;;;;5.88;1.42;;;11.40;99.90;;;;;;4991770;28;20052;-74
2023/03/14 11:21:30;;;;;;;6.68;1.50;;;11.40;99.90;;;;;;5020415;28;20474;-74
2023/03/14 11:24:28;;;;;;;5.38;1.17;;;11.40;99.90;;;;;;5015928;28;20034;-74
2023/03/14 11:27:05;;;;;;;5.88;1.67;;;11.40;99.90;;;;;;4972673;28;20041;-75
2023/03/14 11:29:41;;;;;;;8.15;1.55;;;11.50;99.90;;;;;;5030805;28;20042;-74
2023/03/14 11:32:22;;;;;;;4.28;1.20;;;11.60;99.90;;;;;;4995757;28;20079;-74
2023/03/14 11:34:52;;;;;;;9.63;1.33;;;11.50;99.90;;;;;;5006124;28;20030;-75
2023/03/14 11:37:34;;;;;;;5.35;1.50;;;11.30;99.90;;;;;;5001833;28;20382;-74
2023/03/14 11:40:14;;;;;;;7.47;1.50;;;11.10;99.90;;;;;;5000234;28;20027;-74
2023/03/14 11:42:43;;;;;;;5.25;1.05;;;11.10;99.90;;;;;;4997205;28;20031;-75
2023/03/14 11:45:18;;;;;;;7.32;1.35;;;11.00;99.90;;;;;;5004743;28;20026;-74
2023/03/14 11:47:48;;;;;;;11.85;2.50;;;10.80;99.90;;;;;;5008392;28;20028;-74
2023/03/14 11:50:28;;;;;;;10.63;2.13;;;10.80;99.90;;;;;;5011502;28;20037;-73
2023/03/14 11:53:09;;;;;;;14.38;2.03;;;11.00;99.90;;;;;;4990252;28;20031;-74
2023/03/14 11:55:38;;;;;;;30.48;4.07;;;11.10;99.90;;;;;;4998919;28;20495;-74
2023/03/14 11:58:19;;;;;;;9.98;1.70;;;11.20;99.90;;;;;;4987849;28;20417;-74
2023/03/14 12:00:48;;;;;;;11.38;1.70;;;11.20;99.90;;;;;;5001788;28;20028;-75
2023/03/14 12:03:16;;;;;;;12.65;2.28;;;11.30;99.90;;;;;;5006445;28;20029;-73
2023/03/14 12:06:16;;;;;;;11.52;2.15;;;11.40;99.90;;;;;;4985873;28;20026;-75
2023/03/14 12:08:49;;;;;;;39.17;5.82;;;11.70;99.90;;;;;;4997751;28;20035;-75
2023/03/14 12:11:24;;;;;;;18.02;2.92;;;11.80;99.90;;;;;;4996398;28;20503;-75
2023/03/14 12:13:52;;;;;;;16.88;3.05;;;11.80;99.90;;;;;;4991028;28;20023;-73
2023/03/14 12:16:24;;;;;;;18.00;3.28;;;11.60;99.90;;;;;;4998930;28;20042;-75
2023/03/14 12:18:51;;;;;;;26.80;4.93;;;11.50;99.90;;;;;;5003605;28;20012;-75
2023/03/14 12:21:17;;;;;;;17.17;3.03;;;11.60;99.90;;;;;;4985931;28;20285;-74
2023/03/14 12:23:55;;;;;;;11.48;3.08;;;11.40;99.90;;;;;;5012384;28;20034;-74
2023/03/14 12:26:51;;;;;;;9.65;1.98;;;11.20;99.90;;;;;;5019222;28;20657;-75
2023/03/14 12:29:17;;;;;;;6.47;1.30;;;11.00;99.90;;;;;;5009983;28;20484;-75
2023/03/14 12:32:00;;;;;;;5.47;1.42;;;10.90;99.90;;;;;;4983468;28;20026;-73
2023/03/14 12:34:30;;;;;;;;;;;10.90;99.90;;;;;;4998240;28;20089;-72
2023/03/14 12:37:12;;;;;;;15.77;2.47;;;11.00;99.90;;;;;;5020832;28;19927;-74
2023/03/14 12:39:54;;;;;;;18.58;3.13;;;11.10;99.90;;;;;;4991959;28;20375;-74
2023/03/14 12:42:44;;;;;;;10.20;2.10;;;11.10;99.90;;;;;;4998691;28;20023;-74
2023/03/14 12:45:30;;;;;;;14.43;3.05;;;11.30;99.90;;;;;;5020419;28;20080;-75
2023/03/14 12:48:01;;;;;;;16.58;3.50;;;11.20;99.90;;;;;;5008007;28;20035;-74
2023/03/14 12:50:35;;;;;;;19.23;3.22;;;11.30;99.90;;;;;;5007171;28;20537;-74
2023/03/14 12:53:20;;;;;;;13.98;3.10;;;11.40;99.90;;;;;;5007991;28;20110;-73